createdAt,value
2022-08-02T00:01:26.498Z,1.83
2022-08-02T00:11:28.168Z,1.80
2022-08-02T00:21:29.721Z,1.73
2022-08-02T00:31:31.439Z,2.10
2022-08-02T00:41:33.048Z,3.47
2022-08-02T00:51:35.084Z,5.23
2022-08-02T01:01:36.715Z,3.65
2022-08-02T01:11:38.468Z,3.30
2022-08-02T01:22:04.101Z,4.03
2022-08-02T01:32:05.592Z,3.50
2022-08-02T01:42:08.715Z,4.13
2022-08-02T01:52:11.576Z,3.72
2022-08-02T02:02:16.654Z,3.77
2022-08-02T02:12:19.354Z,3.60
2022-08-02T02:22:21.393Z,3.50
2022-08-02T02:32:27.960Z,4.40
2022-08-02T02:42:32.211Z,4.63
2022-08-02T02:52:35.385Z,4.13
2022-08-02T03:02:39.281Z,5.00
2022-08-02T03:12:41.247Z,4.60
2022-08-02T03:22:44.307Z,4.80
2022-08-02T03:32:48.407Z,5.18
2022-08-02T03:42:50.882Z,5.27
2022-08-02T03:52:52.891Z,4.53
2022-08-02T04:02:54.494Z,3.37
2022-08-02T04:12:57.490Z,2.60
2022-08-02T04:23:04.519Z,1.25
2022-08-02T04:33:07.549Z,2.03
2022-08-02T04:43:09.219Z,1.67
2022-08-02T04:53:10.887Z,1.90
2022-08-02T05:03:12.469Z,2.00
2022-08-02T05:13:14.071Z,1.88
2022-08-02T05:23:15.639Z,1.80
2022-08-02T05:33:17.555Z,2.23
2022-08-02T05:43:19.166Z,1.40
2022-08-02T05:53:25.133Z,1.20
2022-08-02T06:03:32.521Z,1.45
2022-08-02T06:13:34.713Z,1.27
2022-08-02T06:23:41.820Z,1.43
2022-08-02T06:33:59.527Z,1.60
2022-08-02T06:44:26.203Z,1.17
2022-08-02T06:54:24.929Z,1.15
2022-08-02T07:04:27.527Z,1.10
2022-08-02T07:14:29.139Z,1.00
2022-08-02T07:24:30.733Z,1.30
2022-08-02T07:34:32.467Z,1.00
2022-08-02T07:44:34.013Z,1.50
2022-08-02T07:54:35.754Z,1.70
2022-08-02T08:04:37.726Z,1.43
2022-08-02T08:14:39.948Z,2.17
2022-08-02T08:24:41.641Z,4.03
2022-08-02T08:34:43.264Z,2.30
2022-08-02T08:44:44.897Z,2.50
2022-08-02T08:54:48.938Z,1.60
2022-08-02T09:04:54.874Z,2.20
2022-08-02T09:14:56.954Z,1.67
2022-08-02T09:24:58.549Z,1.85
2022-08-02T09:35:00.207Z,1.67
2022-08-02T09:45:03.024Z,1.33
2022-08-02T09:55:05.650Z,1.80
2022-08-02T10:05:07.632Z,1.57
2022-08-02T10:15:09.956Z,1.60
2022-08-02T10:25:11.943Z,3.50
2022-08-02T10:35:18.300Z,2.90
2022-08-02T10:45:22.797Z,1.67
2022-08-02T10:55:24.687Z,3.33
2022-08-02T11:05:42.672Z,3.55
2022-08-02T11:15:53.092Z,2.67
2022-08-02T11:26:03.630Z,1.87
2022-08-02T11:36:12.867Z,1.70
2022-08-02T11:46:14.979Z,1.43
2022-08-02T11:56:24.819Z,1.92
2022-08-02T12:06:28.079Z,1.53
2022-08-02T12:16:37.784Z,1.40
2022-08-02T12:26:47.091Z,1.83
2022-08-02T12:37:05.375Z,2.07
2022-08-02T12:47:09.214Z,2.13
2022-08-02T12:57:12.717Z,1.93
2022-08-02T13:07:14.534Z,1.33
2022-08-02T13:17:18.553Z,2.43
2022-08-02T13:27:21.259Z,1.97
2022-08-02T13:37:24.621Z,1.95
2022-08-02T13:47:35.858Z,1.40
2022-08-02T13:57:53.638Z,2.13
2022-08-02T14:08:01.503Z,2.23
2022-08-02T14:18:06.859Z,2.33
2022-08-02T14:28:08.787Z,1.90
2022-08-02T14:38:10.563Z,1.80
2022-08-02T14:48:12.191Z,2.10
2022-08-02T14:58:16.956Z,2.30
2022-08-02T15:08:18.692Z,2.80
2022-08-02T15:18:20.311Z,2.13
2022-08-02T15:28:24.684Z,1.80
2022-08-02T15:38:26.340Z,2.23
2022-08-02T15:48:27.975Z,1.83
2022-08-02T15:58:29.662Z,2.20
2022-08-02T16:08:31.225Z,1.73
2022-08-02T16:18:32.833Z,1.60
2022-08-02T16:28:34.440Z,1.63
2022-08-02T16:38:36.136Z,1.70
2022-08-02T16:48:37.896Z,1.60
2022-08-02T16:58:39.506Z,1.30
2022-08-02T17:08:54.412Z,1.67
2022-08-02T17:18:56.303Z,1.63
2022-08-02T17:29:15.386Z,1.43
2022-08-02T17:39:18.889Z,1.87
2022-08-02T17:49:22.473Z,2.22
2022-08-02T17:59:31.208Z,1.93
2022-08-02T18:09:43.880Z,2.50
2022-08-02T18:19:57.442Z,1.67
2022-08-02T18:30:05.484Z,1.53
2022-08-02T18:40:07.913Z,2.30
2022-08-02T18:50:12.819Z,1.87
2022-08-02T19:00:15.136Z,2.20
2022-08-02T19:10:22.122Z,1.60
2022-08-02T19:20:25.051Z,2.70
2022-08-02T19:30:26.649Z,2.55
2022-08-02T19:40:29.126Z,2.00
2022-08-02T19:50:31.327Z,2.70
2022-08-02T20:00:34.099Z,2.07
2022-08-02T20:10:35.705Z,2.43
2022-08-02T20:20:38.028Z,2.10
2022-08-02T20:30:40.529Z,2.47
2022-08-02T20:40:42.071Z,2.17
2022-08-02T20:50:45.442Z,2.43
2022-08-02T21:00:50.836Z,2.53
2022-08-02T21:10:52.992Z,2.53
2022-08-02T21:20:54.915Z,2.43
2022-08-02T21:30:57.820Z,2.83
2022-08-02T21:40:59.343Z,2.80
2022-08-02T21:51:00.903Z,2.63
2022-08-02T22:01:02.467Z,3.08
2022-08-02T22:11:04.378Z,3.80
2022-08-02T22:21:18.522Z,3.27
2022-08-02T22:31:23.523Z,2.80
2022-08-02T22:42:01.636Z,3.30
2022-08-02T22:52:03.210Z,3.50
2022-08-02T23:02:05.418Z,2.30
2022-08-02T23:12:07.106Z,2.73
2022-08-02T23:22:09.544Z,3.57
2022-08-02T23:32:11.255Z,2.60
2022-08-02T23:42:12.783Z,2.20
2022-08-02T23:52:14.624Z,3.10
